Time;durP1;ratioP1;P1;durP2;ratioP2;P2;SDS_P1;SDS_P2;PMS_P1;PMS_P2;Temp;Humidity;BMP_temperature;BMP_pressure;BME280_temperature;BME280_humidity;BME280_pressure;Samples;Min_cycle;Max_cycle;Signal;HPM_P1;HPM_P2
2023/05/27 00:01:30;;;;;;;10.40;7.40;;;;;;;20.69;71.54;99332.69;105688;1254;60475;-69
2023/05/27 00:03:56;;;;;;;10.00;7.10;;;;;;;20.74;71.94;99338.29;105679;1257;74304;-69
2023/05/27 00:06:24;;;;;;;7.50;6.50;;;;;;;20.78;71.28;99346.16;105741;1254;68379;-68
2023/05/27 00:08:51;;;;;;;6.80;6.00;;;;;;;20.82;70.41;99347.23;105542;1254;72952;-68
2023/05/27 00:11:17;;;;;;;7.10;6.00;;;;;;;20.85;69.16;99349.02;105701;1253;61448;-65
2023/05/27 00:13:44;;;;;;;8.10;6.30;;;;;;;19.98;74.35;99336.53;105667;1254;61043;-67
2023/05/27 00:16:12;;;;;;;7.70;6.40;;;;;;;19.11;83.53;99328.48;105733;1257;73650;-68
2023/05/27 00:18:42;;;;;;;7.70;6.60;;;;;;;20.27;74.81;99334.48;105706;1253;68677;-74
2023/05/27 00:21:08;;;;;;;7.30;6.50;;;;;;;20.43;72.70;99342.88;105786;1254;73076;-67
2023/05/27 00:23:36;;;;;;;8.60;6.20;;;;;;;20.38;72.99;99341.11;108242;1253;60714;-68
2023/05/27 00:26:03;;;;;;;11.20;6.70;;;;;;;20.44;72.04;99331.13;107639;1253;60443;-70
2023/05/27 00:28:31;;;;;;;8.40;7.40;;;;;;;20.32;72.75;99326.98;105666;1263;74550;-73
2023/05/27 00:30:58;;;;;;;10.40;6.80;;;;;;;20.32;73.05;99325.67;105565;1254;69263;-69
2023/05/27 00:33:25;;;;;;;8.30;6.60;;;;;;;20.33;73.00;99324.86;105681;1257;73175;-69
2023/05/27 00:35:51;;;;;;;61.40;14.90;;;;;;;20.35;72.84;99326.64;105681;1254;61845;-69
2023/05/27 00:38:18;;;;;;;20.20;11.70;;;;;;;20.44;72.22;99326.77;105701;1253;60473;-70
2023/05/27 00:40:46;;;;;;;58.70;47.40;;;;;;;20.47;72.29;99328.13;105682;1257;73785;-69
2023/05/27 00:43:13;;;;;;;22.30;17.80;;;;;;;20.55;71.71;99323.45;105617;1254;68787;-70
2023/05/27 00:45:41;;;;;;;60.80;44.20;;;;;;;20.60;71.22;99324.75;105649;1253;73061;-69
2023/05/27 00:48:08;;;;;;;58.80;41.00;;;;;;;20.48;72.24;99323.77;105688;1253;61854;-70
2023/05/27 00:50:35;;;;;;;48.20;36.30;;;;;;;20.32;73.34;99328.77;105715;1253;60443;-69
2023/05/27 00:53:02;;;;;;;17.40;14.70;;;;;;;20.32;73.80;99325.98;105717;1257;74610;-68
2023/05/27 00:55:30;;;;;;;59.10;39.00;;;;;;;20.41;73.35;99321.61;105667;1260;69151;-68
2023/05/27 00:57:57;;;;;;;69.20;49.50;;;;;;;20.27;74.68;99315.94;105753;1254;71413;-69
2023/05/27 01:00:24;;;;;;;86.60;61.50;;;;;;;20.34;74.37;99316.02;105695;1254;61661;-69
2023/05/27 01:02:51;;;;;;;32.50;25.30;;;;;;;20.42;73.66;99316.03;105635;1254;60416;-69
2023/05/27 01:05:18;;;;;;;33.20;27.70;;;;;;;20.41;73.64;99309.73;105696;1256;74000;-69
2023/05/27 01:07:45;;;;;;;35.20;28.50;;;;;;;20.41;73.37;99311.41;105640;1254;69486;-70
2023/05/27 01:10:23;;;;;;;11.80;10.20;;;;;;;20.51;72.96;99308.70;105610;1259;73156;-68
2023/05/27 01:13:01;;;;;;;11.60;7.60;;;;;;;20.55;72.09;99306.09;105718;1253;61920;-69
2023/05/27 01:15:30;;;;;;;9.90;7.60;;;;;;;20.53;71.91;99305.93;105752;1257;60421;-68
2023/05/27 01:17:56;;;;;;;9.20;8.00;;;;;;;20.61;71.71;99304.77;105701;1257;74272;-69
2023/05/27 01:20:24;;;;;;;12.60;6.90;;;;;;;20.62;71.11;99308.10;105709;1253;69189;-69
2023/05/27 01:22:54;;;;;;;11.50;6.70;;;;;;;20.70;70.22;99309.45;105506;1260;73277;-69
2023/05/27 01:25:21;;;;;;;10.90;6.10;;;;;;;20.60;70.87;99313.70;105592;1253;62027;-69
2023/05/27 01:27:48;;;;;;;11.50;7.20;;;;;;;20.67;70.18;99317.10;105654;1254;60533;-68
2023/05/27 01:30:15;;;;;;;8.20;6.80;;;;;;;20.73;69.67;99319.83;105707;1258;74242;-68
2023/05/27 01:32:53;;;;;;;6.80;6.10;;;;;;;20.81;69.26;99315.48;105661;1260;68745;-70
2023/05/27 01:35:30;;;;;;;9.00;6.70;;;;;;;20.88;68.73;99318.48;105736;1257;72976;-69
2023/05/27 01:37:59;;;;;;;7.20;6.50;;;;;;;20.85;68.70;99324.43;105701;1253;61680;-69
2023/05/27 01:40:28;;;;;;;8.30;6.80;;;;;;;20.67;69.69;99325.14;105523;1254;61657;-69
2023/05/27 01:42:56;;;;;;;7.70;6.90;;;;;;;20.76;69.42;99326.59;105727;1257;73760;-70
2023/05/27 01:45:25;;;;;;;7.90;6.80;;;;;;;20.88;68.81;99331.35;105719;1254;67625;-70
2023/05/27 01:47:52;;;;;;;9.70;7.60;;;;;;;21.11;67.21;99337.66;105720;1259;73230;-69
2023/05/27 01:50:21;;;;;;;9.40;7.10;;;;;;;21.06;67.60;99340.67;105671;1253;61723;-68
2023/05/27 01:52:48;;;;;;;10.60;7.40;;;;;;;21.08;67.11;99346.83;105683;1253;60419;-67
2023/05/27 01:55:17;;;;;;;9.40;6.80;;;;;;;20.79;68.82;99346.41;105551;1254;74374;-70
2023/05/27 01:57:44;;;;;;;16.30;7.60;;;;;;;20.80;69.54;99344.52;105677;1254;68605;-69
2023/05/27 02:00:12;;;;;;;9.50;7.10;;;;;;;20.80;69.34;99341.81;105698;1254;73397;-69
2023/05/27 02:02:47;;;;;;;9.90;6.90;;;;;;;20.88;68.70;99338.61;105606;1253;61897;-70
2023/05/27 02:05:14;;;;;;;7.70;6.60;;;;;;;21.05;67.27;99335.26;105705;1254;60460;-69
2023/05/27 02:07:41;;;;;;;12.90;8.00;;;;;;;21.22;66.20;99339.40;105670;1257;73158;-69
2023/05/27 02:10:09;;;;;;;11.60;7.90;;;;;;;21.26;65.76;99343.07;105743;1253;69203;-67
2023/05/27 02:12:36;;;;;;;8.90;7.80;;;;;;;21.10;66.87;99340.58;105673;1259;72698;-67
2023/05/27 02:15:04;;;;;;;8.80;8.00;;;;;;;21.11;66.65;99345.05;105796;1253;61954;-68
2023/05/27 02:17:32;;;;;;;;;;;;;;;21.17;66.08;99341.10;105742;1257;60428;-68
2023/05/27 02:19:58;;;;;;;8.70;7.20;;;;;;;21.00;67.29;99340.02;105674;1257;74120;-69
2023/05/27 02:22:26;;;;;;;9.00;7.70;;;;;;;20.94;67.86;99336.91;105660;1253;69121;-67
2023/05/27 02:24:53;;;;;;;7.90;6.80;;;;;;;20.97;67.74;99340.24;105667;1255;73116;-67
2023/05/27 02:27:20;;;;;;;7.90;6.80;;;;;;;20.96;67.82;99340.66;105492;1260;62038;-69
2023/05/27 02:29:47;;;;;;;9.80;6.70;;;;;;;20.96;67.98;99347.91;105715;1254;60533;-67
2023/05/27 02:32:15;;;;;;;9.90;7.20;;;;;;;20.98;68.04;99346.95;105727;1258;74255;-66
2023/05/27 02:34:43;;;;;;;10.30;7.30;;;;;;;20.92;68.17;99346.70;105703;1254;69159;-66
2023/05/27 02:37:10;;;;;;;9.70;8.30;;;;;;;21.00;67.49;99348.60;105699;1254;72575;-61
2023/05/27 02:39:40;;;;;;;15.30;11.30;;;;;;;21.01;67.18;99350.52;105654;1254;61817;-63
2023/05/27 02:42:08;;;;;;;55.20;36.20;;;;;;;21.04;67.06;99350.09;105699;1254;60460;-66
2023/05/27 02:44:35;;;;;;;74.50;44.60;;;;;;;21.11;66.55;99349.61;105698;1259;73906;-69
2023/05/27 02:47:02;;;;;;;65.20;50.00;;;;;;;21.06;67.25;99350.78;105691;1253;69034;-70
2023/05/27 02:49:30;;;;;;;35.60;32.10;;;;;;;21.00;67.39;99345.41;106019;1253;72585;-67
2023/05/27 02:51:57;;;;;;;26.90;21.20;;;;;;;20.97;67.69;99345.86;106619;1256;61895;-67
2023/05/27 02:54:24;;;;;;;17.30;13.60;;;;;;;21.09;67.29;99349.91;105987;1253;60632;-62
2023/05/27 02:56:51;;;;;;;13.20;11.90;;;;;;;21.09;67.18;99350.77;105679;1257;74318;-71
2023/05/27 02:59:18;;;;;;;14.10;10.90;;;;;;;21.18;66.64;99353.94;105721;1254;68936;-69
2023/05/27 03:01:45;;;;;;;11.30;9.00;;;;;;;21.14;66.95;99358.29;105645;1254;71576;-73
2023/05/27 03:04:11;;;;;;;13.20;7.90;;;;;;;20.94;67.59;99358.10;105671;1254;61854;-70
2023/05/27 03:06:41;;;;;;;11.50;8.00;;;;;;;20.76;68.96;99354.85;105703;1253;61148;-70
2023/05/27 03:09:09;;;;;;;;;;;;;;;20.71;69.47;99356.60;105689;1258;74243;-68
2023/05/27 03:11:37;;;;;;;11.70;7.50;;;;;;;20.58;70.66;99356.67;105614;1254;68985;-64
2023/05/27 03:14:04;;;;;;;9.00;7.80;;;;;;;19.23;79.33;99352.99;105733;1257;72675;-71
2023/05/27 03:16:32;;;;;;;18.70;8.50;;;;;;;17.61;97.86;99345.88;105670;1253;61700;-69
2023/05/27 03:19:00;;;;;;;10.50;7.90;;;;;;;17.60;99.85;99345.86;105644;1253;60543;-70
2023/05/27 03:21:27;;;;;;;9.90;7.90;;;;;;;17.29;100.00;99347.71;105637;1260;74353;-73
2023/05/27 03:23:54;;;;;;;10.80;8.50;;;;;;;17.05;100.00;99350.23;105650;1253;68962;-75
2023/05/27 03:26:21;;;;;;;10.10;7.70;;;;;;;17.00;100.00;99349.70;105670;1255;73242;-75
2023/05/27 03:28:49;;;;;;;13.00;8.30;;;;;;;17.11;100.00;99354.73;105690;1253;62001;-73
2023/05/27 03:31:17;;;;;;;17.10;8.10;;;;;;;17.14;100.00;99357.13;105682;1253;60501;-70
2023/05/27 03:33:51;;;;;;;8.80;7.50;;;;;;;17.14;100.00;99361.41;105688;1257;74269;-74
2023/05/27 03:36:18;;;;;;;12.70;8.00;;;;;;;17.21;100.00;99364.73;105673;1253;69217;-72
2023/05/27 03:38:46;;;;;;;15.60;8.20;;;;;;;17.08;100.00;99367.81;105695;1257;72130;-74
2023/05/27 03:41:13;;;;;;;10.40;8.30;;;;;;;16.85;100.00;99369.06;106334;1253;60718;-68
2023/05/27 03:43:40;;;;;;;12.60;8.60;;;;;;;17.01;100.00;99375.93;106705;1254;60545;-68
2023/05/27 03:46:08;;;;;;;11.00;7.90;;;;;;;17.08;100.00;99374.42;106912;1253;73121;-67
2023/05/27 03:48:36;;;;;;;15.60;8.30;;;;;;;17.19;100.00;99377.20;108669;1253;68955;-68
2023/05/27 03:51:04;;;;;;;12.60;7.90;;;;;;;17.42;100.00;99380.77;109032;1253;71133;-69
2023/05/27 03:53:32;;;;;;;10.40;8.30;;;;;;;19.01;92.04;99391.60;108814;1253;60666;-69
2023/05/27 03:55:59;;;;;;;24.50;8.70;;;;;;;19.58;85.11;99398.63;106870;1253;60408;-72
2023/05/27 03:58:26;;;;;;;12.60;8.30;;;;;;;19.15;86.67;99391.63;107719;1253;74340;-66
2023/05/27 04:00:55;;;;;;;9.10;7.00;;;;;;;17.51;100.00;99379.11;109046;1253;67414;-67
2023/05/27 04:03:26;;;;;;;15.70;8.00;;;;;;;17.94;98.30;99380.73;108796;1253;71872;-67
2023/05/27 04:05:56;;;;;;;12.20;9.30;;;;;;;17.45;100.00;99375.37;108677;1253;60723;-67
2023/05/27 04:08:27;;;;;;;9.70;8.10;;;;;;;17.41;100.00;99377.36;108760;1253;59105;-68
2023/05/27 04:10:55;;;;;;;12.70;10.90;;;;;;;17.48;100.00;99377.48;108962;1253;149992;-66
2023/05/27 04:13:26;;;;;;;13.70;8.90;;;;;;;17.44;100.00;99381.36;109186;1253;67718;-70
2023/05/27 04:15:53;;;;;;;14.40;9.50;;;;;;;17.32;100.00;99386.54;109057;1253;72090;-67
2023/05/27 04:18:23;;;;;;;13.00;8.00;;;;;;;17.43;100.00;99383.81;108873;1257;60707;-69
2023/05/27 04:20:50;;;;;;;10.10;7.50;;;;;;;17.56;100.00;99385.02;108967;1253;58800;-66
2023/05/27 04:23:17;;;;;;;13.20;7.90;;;;;;;17.83;99.56;99396.24;109112;1253;73167;-67
2023/05/27 04:25:44;;;;;;;11.40;7.40;;;;;;;19.87;84.08;99404.59;108993;1254;67597;-69
2023/05/27 04:28:13;;;;;;;;;;;;;;;20.42;76.70;99407.71;108773;1253;71178;-69
2023/05/27 04:30:48;;;;;;;9.50;6.80;;;;;;;20.84;73.20;99406.40;108888;1253;60740;-69
2023/05/27 04:33:27;;;;;;;10.20;7.60;;;;;;;21.15;70.13;99409.02;108833;1253;58965;-68
2023/05/27 04:35:56;;;;;;;14.70;8.70;;;;;;;21.00;69.34;99406.48;108696;1253;73278;-68
2023/05/27 04:38:24;;;;;;;13.20;8.00;;;;;;;19.40;83.52;99405.58;108906;1253;67618;-68
2023/05/27 04:41:01;;;;;;;13.60;7.70;;;;;;;20.11;76.36;99407.39;107335;1253;70932;-73
2023/05/27 04:43:56;;;;;;;16.00;7.30;;;;;;;19.60;78.10;99406.27;105828;1253;60525;-70
2023/05/27 04:46:27;;;;;;;11.60;8.10;;;;;;;18.83;86.72;99404.27;106087;1254;60425;-69
2023/05/27 04:48:54;;;;;;;15.10;8.20;;;;;;;18.59;88.77;99401.77;106028;1257;74074;-70
2023/05/27 04:51:22;;;;;;;11.10;7.00;;;;;;;18.42;91.39;99396.06;105920;1253;68465;-67
2023/05/27 04:53:50;;;;;;;14.70;8.20;;;;;;;18.44;91.72;99404.10;105639;1257;72169;-74
2023/05/27 04:56:18;;;;;;;18.80;8.60;;;;;;;20.17;77.53;99410.71;105753;1253;61819;-66
2023/05/27 04:58:48;;;;;;;15.50;8.20;;;;;;;20.74;71.46;99410.38;105747;1253;60399;-71
2023/05/27 05:01:20;;;;;;;11.30;7.60;;;;;;;20.72;72.69;99415.36;105736;1259;74271;-69
2023/05/27 05:04:11;;;;;;;11.50;8.60;;;;;;;21.35;66.75;99419.48;105777;1253;69156;-68
2023/05/27 05:06:40;;;;;;;15.00;9.10;;;;;;;21.55;65.57;99419.60;105699;1259;72086;-70
2023/05/27 05:09:09;;;;;;;19.00;8.40;;;;;;;21.72;63.59;99422.69;105702;1253;60600;-70
2023/05/27 05:11:36;;;;;;;14.30;8.00;;;;;;;21.90;61.88;99419.99;105686;1253;60437;-69
2023/05/27 05:14:03;;;;;;;11.30;8.30;;;;;;;19.46;79.61;99414.11;105700;1257;74283;-70
2023/05/27 05:16:30;;;;;;;14.60;8.00;;;;;;;20.72;75.26;99413.92;106767;1253;68690;-68
2023/05/27 05:19:00;;;;;;;19.10;8.90;;;;;;;21.64;64.72;99418.06;106738;1260;72116;-68
2023/05/27 05:21:30;;;;;;;14.30;8.40;;;;;;;20.21;75.26;99417.77;105885;1253;62125;-70
2023/05/27 05:23:58;;;;;;;11.50;7.80;;;;;;;21.73;65.91;99422.55;105799;1254;60386;-68
2023/05/27 05:26:25;;;;;;;12.10;8.40;;;;;;;22.17;62.91;99423.34;105662;1259;74222;-69
2023/05/27 05:28:52;;;;;;;15.50;8.00;;;;;;;19.91;77.24;99414.13;105736;1253;69142;-71
2023/05/27 05:31:19;;;;;;;12.50;7.90;;;;;;;19.90;81.47;99406.70;105761;1257;72465;-69
2023/05/27 05:33:47;;;;;;;11.80;8.00;;;;;;;20.09;79.45;99408.66;105689;1254;60545;-69
2023/05/27 05:36:14;;;;;;;11.10;8.20;;;;;;;20.18;79.79;99409.45;105657;1253;60486;-68
2023/05/27 05:38:50;;;;;;;11.30;7.50;;;;;;;20.46;77.57;99410.83;105700;1258;74407;-68
2023/05/27 05:41:17;;;;;;;10.50;7.80;;;;;;;20.67;75.70;99414.88;105798;1253;68945;-70
2023/05/27 05:43:44;;;;;;;11.60;8.10;;;;;;;20.71;74.87;99418.56;105732;1254;73142;-66
2023/05/27 05:46:12;;;;;;;10.30;8.40;;;;;;;21.37;73.29;99420.79;105673;1253;60605;-65
2023/05/27 05:48:39;;;;;;;13.40;8.70;;;;;;;22.33;66.62;99423.95;105716;1253;60299;-65
2023/05/27 05:51:08;;;;;;;11.90;7.50;;;;;;;22.49;61.06;99424.52;105714;1257;73497;-67
2023/05/27 05:53:35;;;;;;;9.40;7.10;;;;;;;21.97;61.85;99425.89;105681;1253;69529;-70
2023/05/27 05:56:02;;;;;;;10.50;7.60;;;;;;;21.70;63.68;99422.73;106490;1253;70943;-69
2023/05/27 05:58:29;;;;;;;9.10;7.50;;;;;;;21.74;66.31;99426.59;108245;1254;60291;-70
2023/05/27 06:00:57;;;;;;;9.80;8.00;;;;;;;21.82;62.94;99427.28;105993;1253;60534;-69
2023/05/27 06:03:36;;;;;;;15.80;7.70;;;;;;;21.72;63.72;99432.10;107494;1254;74160;-67
2023/05/27 06:06:06;;;;;;;10.00;6.80;;;;;;;21.67;63.65;99434.64;106676;1253;69479;-70
2023/05/27 06:08:39;;;;;;;12.00;6.90;;;;;;;21.75;63.46;99435.28;105771;1253;73020;-69
2023/05/27 06:11:11;;;;;;;11.30;7.20;;;;;;;21.60;63.86;99435.58;105680;1253;60532;-70
2023/05/27 06:13:40;;;;;;;10.50;6.60;;;;;;;21.45;64.70;99435.71;105782;1253;60323;-68
2023/05/27 06:16:09;;;;;;;15.20;7.50;;;;;;;21.88;63.38;99434.47;105795;1257;74146;-68
2023/05/27 06:18:37;;;;;;;9.80;7.10;;;;;;;23.12;58.60;99442.25;105729;1253;69411;-67
2023/05/27 06:21:04;;;;;;;12.20;6.90;;;;;;;25.09;49.80;99450.83;105593;1258;72509;-66
2023/05/27 06:23:41;;;;;;;11.80;7.30;;;;;;;25.52;46.85;99450.41;105309;1258;60478;-67
2023/05/27 06:26:14;;;;;;;9.90;6.90;;;;;;;25.68;45.36;99456.85;105557;1258;60709;-70
2023/05/27 06:28:46;;;;;;;10.00;7.00;;;;;;;25.73;45.19;99460.72;105597;1261;74192;-69
2023/05/27 06:31:13;;;;;;;12.80;7.10;;;;;;;24.61;48.12;99456.50;105602;1258;69101;-70
2023/05/27 06:33:41;;;;;;;10.20;6.90;;;;;;;22.85;55.41;99457.54;105592;1261;73147;-68
2023/05/27 06:36:08;;;;;;;11.00;7.30;;;;;;;22.63;56.92;99451.44;105315;1259;60536;-69
2023/05/27 06:38:38;;;;;;;18.30;11.10;;;;;;;23.15;56.97;99458.86;105618;1254;60377;-70
2023/05/27 06:41:04;;;;;;;10.50;7.30;;;;;;;24.82;50.50;99464.05;105643;1259;74094;-68
2023/05/27 06:43:32;;;;;;;9.40;6.80;;;;;;;25.00;49.23;99465.63;105705;1254;69181;-70
2023/05/27 06:46:18;;;;;;;10.30;6.10;;;;;;;24.55;48.53;99466.52;105691;1253;72609;-69
2023/05/27 06:49:05;;;;;;;24.50;18.00;;;;;;;24.27;49.23;99464.82;105604;1257;61311;-69
2023/05/27 06:51:33;;;;;;;;;;;;;;;23.95;50.50;99463.55;105686;1253;60415;-66
2023/05/27 06:53:59;;;;;;;12.50;8.90;;;;;;;23.77;50.78;99466.06;105470;1262;74330;-70
2023/05/27 06:56:35;;;;;;;14.40;8.90;;;;;;;24.77;48.34;99473.44;105629;1257;68510;-68
2023/05/27 06:59:28;;;;;;;11.10;9.20;;;;;;;23.86;49.63;99471.48;105407;1260;72370;-69
2023/05/27 07:01:58;;;;;;;9.50;6.90;;;;;;;24.27;48.05;99479.45;105557;1256;61626;-69
2023/05/27 07:04:26;;;;;;;12.90;8.00;;;;;;;25.36;45.46;99480.41;105319;1257;60425;-69
2023/05/27 07:06:55;;;;;;;11.60;7.30;;;;;;;25.82;44.07;99476.10;105589;1257;72245;-69
2023/05/27 07:09:21;;;;;;;9.90;7.50;;;;;;;26.07;43.77;99481.70;105502;1256;69176;-71
2023/05/27 07:11:48;;;;;;;18.40;7.90;;;;;;;26.12;42.97;99479.92;105602;1257;73154;-69
2023/05/27 07:14:36;;;;;;;13.60;7.70;;;;;;;25.97;43.72;99482.36;105630;1257;60501;-69
2023/05/27 07:17:03;;;;;;;17.30;12.80;;;;;;;26.42;43.33;99485.91;105564;1256;60406;-69
2023/05/27 07:19:30;;;;;;;12.20;7.80;;;;;;;26.58;42.84;99480.89;105630;1260;74270;-69
2023/05/27 07:21:59;;;;;;;9.70;7.70;;;;;;;27.05;42.18;99479.11;105295;1257;68509;-69
2023/05/27 07:24:27;;;;;;;12.00;7.90;;;;;;;26.79;41.92;99485.08;105267;1253;73176;-67
2023/05/27 07:26:55;;;;;;;15.00;7.70;;;;;;;26.88;42.65;99481.80;105912;1253;60467;-71
2023/05/27 07:29:23;;;;;;;;;;;;;;;27.42;41.39;99480.88;105797;1254;60460;-70
2023/05/27 07:31:53;;;;;;;15.00;7.90;;;;;;;27.59;41.08;99482.55;105857;1256;73585;-68
2023/05/27 07:34:23;;;;;;;12.50;7.40;;;;;;;27.88;40.86;99482.84;105717;1254;69290;-66
2023/05/27 07:36:50;;;;;;;13.10;7.00;;;;;;;28.70;40.21;99484.63;105701;1259;72680;-71
2023/05/27 07:39:18;;;;;;;7.00;6.30;;;;;;;29.38;39.29;99482.24;105868;1253;60559;-69
2023/05/27 07:41:45;;;;;;;9.60;6.50;;;;;;;29.59;38.38;99481.48;105761;1254;60451;-69
2023/05/27 07:44:11;;;;;;;11.50;6.60;;;;;;;29.60;38.29;99484.33;105704;1257;74155;-67
2023/05/27 07:46:39;;;;;;;13.50;6.90;;;;;;;29.76;38.27;99485.01;105825;1254;69233;-67
2023/05/27 07:49:05;;;;;;;10.10;6.30;;;;;;;29.82;37.96;99485.36;105766;1257;73674;-72
2023/05/27 07:51:36;;;;;;;13.50;6.80;;;;;;;29.81;37.72;99485.98;105660;1253;60613;-70
2023/05/27 07:54:03;;;;;;;;;;;;;;;29.72;38.53;99485.20;106059;1254;60470;-69
2023/05/27 07:56:30;;;;;;;19.00;9.40;;;;;;;29.85;37.53;99487.29;106105;1256;73777;-69
2023/05/27 07:58:57;;;;;;;19.80;9.30;;;;;;;29.74;38.46;99494.46;105948;1254;69022;-69
2023/05/27 08:01:30;;;;;;;13.30;8.70;;;;;;;29.76;37.65;99485.77;105790;1254;73118;-69
2023/05/27 08:03:57;;;;;;;16.60;8.60;;;;;;;29.69;38.10;99490.08;105609;1254;60410;-68
2023/05/27 08:07:07;;;;;;;18.40;11.30;;;;;;;29.96;37.42;99489.71;105763;1253;60739;-69
2023/05/27 08:09:54;;;;;;;10.50;7.70;;;;;;;29.53;37.66;99492.95;105931;1256;74336;-71
2023/05/27 08:12:40;;;;;;;16.30;8.40;;;;;;;29.41;38.38;99489.30;105996;1254;69223;-70
2023/05/27 08:15:17;;;;;;;11.00;9.10;;;;;;;29.64;37.76;99486.73;105704;1259;72768;-71
2023/05/27 08:18:15;;;;;;;16.90;7.30;;;;;;;30.17;37.03;99491.66;105823;1254;60448;-68
2023/05/27 08:20:49;;;;;;;16.70;14.00;;;;;;;28.18;38.68;99480.77;105895;1252;60511;-69
2023/05/27 08:23:36;;;;;;;10.00;7.60;;;;;;;26.47;42.60;99471.46;105941;1256;74462;-68
2023/05/27 08:26:38;;;;;;;13.80;6.80;;;;;;;26.45;42.83;99469.45;105563;1256;69039;-68
2023/05/27 08:29:34;;;;;;;12.20;5.70;;;;;;;26.71;43.00;99468.95;105636;1254;72743;-69
2023/05/27 08:32:12;;;;;;;7.20;6.10;;;;;;;27.53;41.28;99472.73;105910;1254;60423;-69
2023/05/27 08:34:41;;;;;;;;;;;;;;;26.62;43.25;99469.27;105957;1252;60559;-70
2023/05/27 08:37:08;;;;;;;10.70;5.90;;;;;;;26.77;42.36;99472.22;105754;1259;74307;-70
2023/05/27 08:39:39;;;;;;;15.00;6.80;;;;;;;26.70;42.41;99469.58;105987;1254;68382;-70
2023/05/27 08:42:16;;;;;;;14.70;7.10;;;;;;;26.87;42.63;99469.88;105918;1256;72545;-70
2023/05/27 08:44:45;;;;;;;14.00;6.40;;;;;;;28.47;40.67;99481.61;105959;1254;60737;-69
2023/05/27 08:47:14;;;;;;;22.80;12.60;;;;;;;28.83;40.35;99481.54;105696;1254;60510;-69
2023/05/27 08:49:41;;;;;;;10.40;5.70;;;;;;;29.22;38.96;99482.88;105712;1259;74108;-71
2023/05/27 08:52:13;;;;;;;;;;;;;;;28.48;39.00;99477.66;105960;1258;69074;-72
2023/05/27 08:54:40;;;;;;;9.00;6.00;;;;;;;27.95;39.87;99476.36;105996;1256;72287;-69
2023/05/27 08:57:07;;;;;;;11.30;6.30;;;;;;;26.73;42.48;99465.90;105987;1255;60427;-71
2023/05/27 08:59:36;;;;;;;11.80;5.70;;;;;;;27.25;42.32;99464.79;105461;1254;60639;-71
2023/05/27 09:02:05;;;;;;;12.60;6.50;;;;;;;26.79;42.95;99471.55;105958;1256;73697;-69
2023/05/27 09:04:33;;;;;;;12.70;5.70;;;;;;;27.22;42.19;99475.23;105974;1256;67209;-72
2023/05/27 09:07:00;;;;;;;19.60;5.90;;;;;;;27.63;40.40;99477.64;106030;1256;72678;-71
2023/05/27 09:09:28;;;;;;;11.50;5.50;;;;;;;27.51;39.93;99475.35;105955;1252;60606;-70
2023/05/27 09:11:59;;;;;;;17.80;6.50;;;;;;;27.33;40.35;99469.79;105832;1253;60535;-68
2023/05/27 09:14:27;;;;;;;8.70;5.70;;;;;;;27.60;40.64;99468.55;105673;1261;74328;-72
2023/05/27 09:16:54;;;;;;;9.70;5.40;;;;;;;27.34;39.94;99468.23;106282;1256;69060;-69
2023/05/27 09:19:21;;;;;;;14.30;5.90;;;;;;;27.53;39.52;99470.42;106791;1252;72384;-71
2023/05/27 09:21:55;;;;;;;14.70;6.20;;;;;;;27.42;39.96;99468.02;106708;1256;61328;-71
2023/05/27 09:24:25;;;;;;;9.50;5.50;;;;;;;27.33;40.79;99468.59;108537;1253;61272;-70
2023/05/27 09:26:55;;;;;;;7.20;5.10;;;;;;;27.81;40.30;99459.50;109024;1254;74032;-69
2023/05/27 09:29:25;;;;;;;10.50;5.70;;;;;;;29.32;37.90;99469.73;107786;1254;67530;-73
2023/05/27 09:31:55;;;;;;;18.30;6.00;;;;;;;29.63;37.19;99469.50;105844;1259;72579;-67
2023/05/27 09:34:22;;;;;;;13.90;6.20;;;;;;;30.41;35.92;99475.40;105908;1252;61452;-76
2023/05/27 09:36:51;;;;;;;14.00;6.70;;;;;;;30.82;34.43;99475.15;105991;1254;61269;-74
2023/05/27 09:39:19;;;;;;;8.70;5.40;;;;;;;30.44;34.13;99476.29;105947;1256;74303;-71
2023/05/27 09:41:52;;;;;;;14.20;6.10;;;;;;;30.56;33.85;99476.34;106016;1256;68686;-71
2023/05/27 09:44:19;;;;;;;11.10;5.80;;;;;;;28.95;36.26;99470.33;106009;1254;72562;-71
2023/05/27 09:46:46;;;;;;;18.50;5.60;;;;;;;29.91;34.99;99470.48;105779;1254;61312;-71
2023/05/27 09:49:16;;;;;;;18.10;6.80;;;;;;;30.22;34.33;99470.50;105712;1254;61345;-69
2023/05/27 09:51:43;;;;;;;9.40;6.00;;;;;;;30.20;34.75;99471.27;105693;1259;75258;-70
2023/05/27 09:54:10;;;;;;;10.10;5.70;;;;;;;30.23;35.07;99469.23;105893;1256;69054;-72
2023/05/27 09:56:37;;;;;;;;;;;;;;;29.58;35.02;99457.83;105766;1254;73024;-71
2023/05/27 09:59:06;;;;;;;13.30;9.40;;;;;;;29.30;35.65;99461.31;105835;1254;61220;-69
2023/05/27 10:01:35;;;;;;;12.90;8.60;;;;;;;29.56;35.50;99459.31;105825;1253;61287;-69
2023/05/27 10:04:02;;;;;;;6.70;5.60;;;;;;;30.03;34.97;99465.34;105925;1256;75110;-72
2023/05/27 10:06:31;;;;;;;8.40;5.40;;;;;;;30.52;34.02;99462.95;105714;1254;69129;-71
2023/05/27 10:09:01;;;;;;;8.50;5.80;;;;;;;30.79;33.63;99459.15;105718;1260;72563;-70
2023/05/27 10:11:35;;;;;;;9.90;5.60;;;;;;;30.08;33.28;99458.63;105795;1253;62221;-73
2023/05/27 10:14:02;;;;;;;8.90;6.10;;;;;;;29.98;33.08;99456.44;105974;1256;61208;-70
2023/05/27 10:16:29;;;;;;;;;;;;;;;29.89;34.05;99463.43;105673;1260;74410;-68
2023/05/27 10:18:56;;;;;;;7.20;5.60;;;;;;;30.32;33.91;99461.29;105672;1254;69122;-70
2023/05/27 10:21:27;;;;;;;;;;;;;;;30.44;33.90;99456.03;105667;1261;73074;-69
2023/05/27 10:23:58;;;;;;;9.50;5.60;;;;;;;30.43;33.92;99458.41;105793;1259;61228;-69
2023/05/27 10:26:33;;;;;;;13.10;7.50;;;;;;;30.90;33.73;99456.41;105945;1253;62286;-70
2023/05/27 10:29:07;;;;;;;27.60;16.10;;;;;;;30.98;33.81;99452.39;105930;1254;73327;-70
2023/05/27 10:31:38;;;;;;;7.60;6.10;;;;;;;30.76;33.53;99452.98;105927;1256;68079;-69
2023/05/27 10:34:06;;;;;;;7.60;5.70;;;;;;;30.53;33.63;99454.10;105901;1256;73204;-69
2023/05/27 10:36:36;;;;;;;8.10;5.30;;;;;;;30.89;32.41;99453.88;105899;1254;61265;-71
2023/05/27 10:39:05;;;;;;;8.60;5.30;;;;;;;31.16;31.60;99450.27;105866;1254;61288;-67
2023/05/27 10:41:51;;;;;;;10.30;5.30;;;;;;;31.36;32.12;99447.11;105911;1256;75174;-70
2023/05/27 10:44:32;;;;;;;11.50;6.60;;;;;;;31.22;32.39;99444.73;105905;1254;70481;-69
2023/05/27 10:47:13;;;;;;;7.80;5.90;;;;;;;31.36;31.90;99442.04;105925;1256;73110;-73
2023/05/27 10:49:40;;;;;;;7.70;5.50;;;;;;;31.47;31.12;99443.63;105892;1254;61201;-69
2023/05/27 10:52:11;;;;;;;5.30;4.70;;;;;;;31.60;30.95;99442.04;105971;1254;61267;-69
2023/05/27 10:54:39;;;;;;;9.60;5.40;;;;;;;31.66;31.28;99438.46;105656;1260;74960;-69
2023/05/27 10:57:06;;;;;;;8.90;5.70;;;;;;;31.56;31.03;99442.50;105943;1256;69156;-70
2023/05/27 10:59:40;;;;;;;8.70;6.40;;;;;;;31.22;31.34;99432.45;105907;1256;72428;-69
2023/05/27 11:02:07;;;;;;;11.00;7.20;;;;;;;30.99;32.04;99427.77;105937;1254;61331;-69
2023/05/27 11:04:37;;;;;;;16.30;6.40;;;;;;;31.00;32.50;99425.16;105592;1254;61526;-69
2023/05/27 11:07:04;;;;;;;17.10;6.10;;;;;;;31.27;32.30;99424.06;106027;1257;74932;-70
2023/05/27 11:09:48;;;;;;;12.90;6.30;;;;;;;31.16;31.28;99423.35;105908;1254;68387;-72
2023/05/27 11:12:19;;;;;;;8.40;5.80;;;;;;;30.74;31.32;99413.24;105765;1257;72863;-72
2023/05/27 11:14:53;;;;;;;11.30;5.00;;;;;;;30.85;31.54;99415.63;105801;1254;61252;-74
2023/05/27 11:17:20;;;;;;;14.70;6.60;;;;;;;30.75;31.21;99408.17;105717;1254;61334;-72
2023/05/27 11:19:52;;;;;;;11.40;6.00;;;;;;;30.45;32.21;99402.25;105756;1262;74732;-70
2023/05/27 11:22:19;;;;;;;7.20;5.50;;;;;;;31.14;32.34;99402.11;105907;1254;68936;-69
2023/05/27 11:24:56;;;;;;;11.00;6.00;;;;;;;30.59;33.63;99397.34;105708;1254;73076;-70
2023/05/27 11:27:23;;;;;;;13.40;7.90;;;;;;;31.44;31.68;99402.49;105930;1254;61333;-73
2023/05/27 11:29:51;;;;;;;10.20;6.00;;;;;;;31.16;31.46;99405.27;106051;1256;62272;-71
2023/05/27 11:32:19;;;;;;;13.50;5.30;;;;;;;31.41;31.50;99409.55;106027;1256;74846;-69
2023/05/27 11:34:46;;;;;;;12.00;5.10;;;;;;;32.02;30.44;99413.64;105932;1254;68647;-70